Time;durP1;ratioP1;P1;durP2;ratioP2;P2;SDS_P1;SDS_P2;PMS_P1;PMS_P2;Temp;Humidity;BMP_temperature;BMP_pressure;BME280_temperature;BME280_humidity;BME280_pressure;Samples;Min_cycle;Max_cycle;Signal;HPM_P1;HPM_P2
2023/10/09 00:03:15;;;;;;;14.27;3.57;;;19.20;99.90;;;;;;10043639;28;20451;-73
2023/10/09 00:08:08;;;;;;;9.32;4.30;;;19.20;99.90;;;;;;10057805;28;20045;-74
2023/10/09 00:12:59;;;;;;;7.43;3.30;;;19.20;99.90;;;;;;10038642;28;20041;-74
2023/10/09 00:17:51;;;;;;;10.77;4.20;;;19.10;99.90;;;;;;10040279;28;20050;-75
2023/10/09 00:22:43;;;;;;;9.73;3.70;;;19.10;99.90;;;;;;10041515;28;20030;-74
2023/10/09 00:27:36;;;;;;;10.07;3.53;;;19.00;99.90;;;;;;10033153;28;20061;-75
2023/10/09 00:32:26;;;;;;;12.80;3.90;;;19.00;99.90;;;;;;10041657;28;20068;-74
2023/10/09 00:37:25;;;;;;;6.03;3.17;;;19.00;99.90;;;;;;10040856;28;20073;-74
2023/10/09 00:42:27;;;;;;;14.77;4.53;;;18.90;99.90;;;;;;10061955;28;20060;-73
2023/10/09 00:47:20;;;;;;;12.02;4.50;;;18.90;99.90;;;;;;10046908;28;20057;-73
2023/10/09 00:52:23;;;;;;;18.10;4.95;;;18.80;99.90;;;;;;10034222;28;20082;-71
2023/10/09 00:57:15;;;;;;;6.63;3.20;;;18.70;99.90;;;;;;10044736;28;20068;-72
2023/10/09 01:02:06;;;;;;;6.70;3.67;;;18.70;99.90;;;;;;10039521;28;20041;-72
2023/10/09 01:07:16;;;;;;;9.27;2.97;;;18.70;99.90;;;;;;10047160;28;20025;-72
2023/10/09 01:12:07;;;;;;;9.73;3.72;;;18.70;99.90;;;;;;10029319;28;20079;-72
2023/10/09 01:17:00;;;;;;;10.32;3.63;;;18.60;99.90;;;;;;10042044;28;20037;-72
2023/10/09 01:21:51;;;;;;;8.57;4.25;;;18.60;99.90;;;;;;10054396;28;20522;-74
2023/10/09 01:26:54;;;;;;;9.73;3.60;;;18.60;99.90;;;;;;10033741;28;20025;-73
2023/10/09 01:31:55;;;;;;;11.70;3.40;;;18.70;99.90;;;;;;10043965;28;20029;-73
2023/10/09 01:36:48;;;;;;;4.57;2.95;;;18.60;99.90;;;;;;10038782;28;20038;-72
2023/10/09 01:41:46;;;;;;;11.25;4.70;;;18.60;99.90;;;;;;10046463;28;20053;-74
2023/10/09 01:46:37;;;;;;;8.30;4.07;;;18.60;99.90;;;;;;10033431;28;20116;-72
2023/10/09 01:51:33;;;;;;;10.60;3.58;;;18.50;99.90;;;;;;10032936;28;20108;-77
2023/10/09 01:56:23;;;;;;;12.98;4.00;;;18.50;99.90;;;;;;10040495;28;20431;-73
2023/10/09 02:01:15;;;;;;;11.60;4.35;;;18.50;99.90;;;;;;10040297;28;20038;-73
2023/10/09 02:06:24;;;;;;;8.13;3.97;;;18.50;99.90;;;;;;10053268;28;20129;-72
2023/10/09 02:11:24;;;;;;;11.85;5.05;;;18.40;99.90;;;;;;10038871;28;20046;-72
2023/10/09 02:16:14;;;;;;;9.10;3.15;;;18.40;99.90;;;;;;10043601;28;20042;-73
2023/10/09 02:26:01;;;;;;;9.65;3.17;;;18.30;99.90;;;;;;10047824;28;20036;-74
2023/10/09 02:30:52;;;;;;;10.90;4.20;;;18.30;99.90;;;;;;10040798;28;20036;-73
2023/10/09 02:35:44;;;;;;;9.00;3.05;;;18.20;99.90;;;;;;10046712;28;20475;-73
2023/10/09 02:40:41;;;;;;;11.55;3.15;;;18.20;99.90;;;;;;10041530;28;20030;-72
2023/10/09 02:45:34;;;;;;;11.05;3.38;;;18.10;99.90;;;;;;10039978;28;20026;-72
2023/10/09 02:50:28;;;;;;;8.23;3.55;;;18.10;99.90;;;;;;10027614;28;20022;-72
2023/10/09 02:55:25;;;;;;;12.50;5.03;;;18.10;99.90;;;;;;10041751;28;20041;-73
2023/10/09 03:00:19;;;;;;;14.55;3.80;;;18.10;99.90;;;;;;10041152;28;20040;-73
2023/10/09 03:05:12;;;;;;;8.98;3.00;;;17.90;99.90;;;;;;10039026;28;20026;-74
2023/10/09 03:10:09;;;;;;;8.73;3.40;;;17.90;99.90;;;;;;10022675;28;20053;-74
2023/10/09 03:15:02;;;;;;;10.98;4.07;;;18.00;99.90;;;;;;10039563;28;20106;-72
2023/10/09 03:19:52;;;;;;;8.18;3.45;;;17.90;99.90;;;;;;10046603;28;20402;-72
2023/10/09 03:24:44;;;;;;;6.70;3.03;;;17.70;99.90;;;;;;10034754;28;20160;-72
2023/10/09 03:29:35;;;;;;;13.63;4.95;;;17.70;99.90;;;;;;10044526;28;20037;-72
2023/10/09 03:34:27;;;;;;;10.68;3.42;;;17.70;99.90;;;;;;10049728;28;20032;-72
2023/10/09 03:44:28;;;;;;;6.97;3.20;;;17.70;99.90;;;;;;10063451;28;20025;-72
2023/10/09 03:49:23;;;;;;;11.18;3.47;;;17.80;99.90;;;;;;10047820;28;20037;-73
2023/10/09 03:54:15;;;;;;;12.18;3.85;;;17.80;99.90;;;;;;10047874;28;20032;-73
2023/10/09 03:59:06;;;;;;;10.77;3.33;;;17.70;99.90;;;;;;10057615;28;20419;-72
2023/10/09 04:04:01;;;;;;;10.05;3.47;;;17.70;99.90;;;;;;10041112;28;20117;-72
2023/10/09 04:08:52;;;;;;;5.55;3.17;;;17.70;99.90;;;;;;10031276;28;20120;-71
2023/10/09 04:13:46;;;;;;;8.20;3.55;;;17.70;99.90;;;;;;10046470;28;20498;-73
2023/10/09 04:18:38;;;;;;;10.00;4.00;;;17.70;99.90;;;;;;10035891;28;20042;-71
2023/10/09 04:23:35;;;;;;;11.73;3.95;;;17.70;99.90;;;;;;10047630;28;20024;-72
2023/10/09 04:28:29;;;;;;;14.63;4.78;;;17.60;99.90;;;;;;10026754;28;20029;-72
2023/10/09 04:33:40;;;;;;;6.57;3.33;;;17.50;99.90;;;;;;10041073;28;20041;-72
2023/10/09 04:38:34;;;;;;;10.98;3.10;;;17.50;99.90;;;;;;10037201;28;20037;-72
2023/10/09 04:43:26;;;;;;;8.43;3.90;;;17.40;99.90;;;;;;10047619;28;20519;-73
2023/10/09 04:48:32;;;;;;;7.90;3.78;;;17.40;99.90;;;;;;10046395;28;20115;-72
2023/10/09 04:53:23;;;;;;;10.25;3.55;;;17.50;99.90;;;;;;10039821;28;20040;-73
2023/10/09 04:58:23;;;;;;;8.70;3.75;;;17.40;99.90;;;;;;10044134;28;20527;-72
2023/10/09 05:08:29;;;;;;;10.88;4.25;;;17.30;99.90;;;;;;10036551;28;20411;-72
2023/10/09 05:13:42;;;;;;;11.00;3.75;;;17.30;99.90;;;;;;10052303;28;20144;-72
2023/10/09 05:18:36;;;;;;;8.25;3.20;;;17.30;99.90;;;;;;10050191;28;20483;-73
2023/10/09 05:23:27;;;;;;;17.80;3.45;;;17.30;99.90;;;;;;10035914;28;20084;-73
2023/10/09 05:28:48;;;;;;;7.07;3.30;;;17.30;99.90;;;;;;10034268;28;20080;-75
2023/10/09 05:33:39;;;;;;;10.55;4.38;;;17.30;99.90;;;;;;10040617;28;20030;-72
2023/10/09 05:38:30;;;;;;;13.27;4.47;;;17.20;99.90;;;;;;10043870;28;20040;-72
2023/10/09 05:48:54;;;;;;;7.15;3.97;;;17.20;99.90;;;;;;10036169;28;20113;-72
2023/10/09 06:04:04;;;;;;;9.15;3.63;;;17.10;99.90;;;;;;10057706;28;20454;-72
2023/10/09 06:14:04;;;;;;;8.93;4.20;;;17.10;99.90;;;;;;10053035;28;20086;-73
2023/10/09 06:19:07;;;;;;;11.32;3.47;;;17.10;99.90;;;;;;10042727;28;20124;-72
2023/10/09 06:24:17;;;;;;;12.57;4.88;;;17.10;99.90;;;;;;10045712;28;20480;-73
2023/10/09 06:29:14;;;;;;;6.32;3.75;;;17.00;99.90;;;;;;10027386;28;20139;-75
2023/10/09 06:34:15;;;;;;;10.55;3.15;;;17.10;99.90;;;;;;10045942;28;20076;-76
2023/10/09 06:44:52;;;;;;;11.43;4.40;;;17.10;99.90;;;;;;10052466;28;20114;-75
2023/10/09 06:49:33;;;;;;;12.85;3.38;;;17.30;99.90;;;;;;10050275;28;20033;-76
2023/10/09 06:54:27;;;;;;;10.27;4.45;;;17.30;99.90;;;;;;10064224;28;20555;-76
2023/10/09 06:59:24;;;;;;;8.00;3.10;;;17.30;99.90;;;;;;10068844;28;20464;-75
2023/10/09 07:09:20;;;;;;;10.25;3.78;;;17.40;99.90;;;;;;10051226;28;20042;-75
2023/10/09 07:29:58;;;;;;;5.85;2.40;;;17.70;99.90;;;;;;10101904;28;20042;-77
2023/10/09 07:34:52;;;;;;;12.63;3.50;;;17.70;99.90;;;;;;10042398;28;20033;-75
2023/10/09 07:39:49;;;;;;;10.23;3.10;;;17.80;99.90;;;;;;10069947;28;20045;-77
2023/10/09 07:44:46;;;;;;;5.57;3.47;;;17.90;99.90;;;;;;10065208;28;20021;-76
2023/10/09 07:49:37;;;;;;;10.95;4.53;;;17.90;99.90;;;;;;10061794;28;20499;-72
2023/10/09 07:54:36;;;;;;;5.68;2.67;;;18.10;99.90;;;;;;10041391;28;20136;-73
2023/10/09 07:59:31;;;;;;;6.18;2.90;;;18.20;99.90;;;;;;10045974;28;20049;-73
2023/10/09 08:04:38;;;;;;;8.27;2.88;;;18.20;99.90;;;;;;10056528;28;20025;-74
2023/10/09 08:09:46;;;;;;;15.75;3.40;;;18.20;99.90;;;;;;10055719;28;20312;-73
2023/10/09 08:19:33;;;;;;;7.72;2.72;;;18.30;99.90;;;;;;10057884;28;20156;-76
2023/10/09 08:24:40;;;;;;;9.23;3.25;;;18.30;99.90;;;;;;10057811;28;20040;-77
2023/10/09 08:29:34;;;;;;;8.05;3.33;;;18.40;99.90;;;;;;10052453;28;20435;-76
2023/10/09 08:34:25;;;;;;;13.27;4.20;;;18.40;99.90;;;;;;10060858;28;20026;-76
2023/10/09 08:39:25;;;;;;;10.20;3.55;;;18.40;99.90;;;;;;10065933;28;20543;-75
2023/10/09 08:44:22;;;;;;;10.23;3.15;;;18.50;99.90;;;;;;10063235;28;20030;-78
2023/10/09 08:49:14;;;;;;;5.93;2.95;;;18.60;99.90;;;;;;10064740;28;20032;-78
2023/10/09 08:54:11;;;;;;;8.25;3.25;;;18.60;99.90;;;;;;10059432;28;20033;-73
2023/10/09 08:59:02;;;;;;;11.57;3.83;;;18.60;99.90;;;;;;10049430;28;20491;-73
2023/10/09 09:03:56;;;;;;;6.25;3.85;;;18.70;99.90;;;;;;10054915;28;20112;-73
2023/10/09 09:08:47;;;;;;;5.33;2.97;;;18.80;99.90;;;;;;10047182;28;20135;-77
2023/10/09 09:13:41;;;;;;;12.90;3.28;;;18.80;99.90;;;;;;10074178;28;20487;-76
2023/10/09 09:18:48;;;;;;;9.23;3.08;;;18.90;99.90;;;;;;10052874;28;20407;-74
2023/10/09 09:23:57;;;;;;;10.32;3.50;;;18.90;99.90;;;;;;10048901;28;20111;-75
2023/10/09 09:28:55;;;;;;;16.83;4.70;;;19.00;99.90;;;;;;10066859;28;20040;-78
2023/10/09 09:33:48;;;;;;;9.05;3.05;;;19.10;99.90;;;;;;10067756;28;20411;-75
2023/10/09 09:38:47;;;;;;;9.63;4.18;;;19.10;99.90;;;;;;10067057;28;20299;-74
2023/10/09 09:43:45;;;;;;;8.65;2.92;;;19.10;99.90;;;;;;10070687;28;20059;-71
2023/10/09 09:48:39;;;;;;;7.50;3.95;;;19.10;99.90;;;;;;10064181;28;20426;-77
2023/10/09 09:53:34;;;;;;;7.70;2.95;;;19.30;99.90;;;;;;10061499;28;20052;-72
2023/10/09 09:58:42;;;;;;;6.07;3.17;;;19.40;99.90;;;;;;10047961;28;20041;-73
2023/10/09 10:03:43;;;;;;;9.10;2.58;;;19.50;99.90;;;;;;10040112;28;20036;-76
2023/10/09 10:08:34;;;;;;;13.05;3.60;;;19.60;99.90;;;;;;10044731;28;20081;-73
2023/10/09 10:13:43;;;;;;;10.30;3.83;;;19.60;99.90;;;;;;10062383;28;20493;-71
2023/10/09 10:19:11;;;;;;;9.25;3.50;;;19.70;99.90;;;;;;10056657;28;20124;-72
2023/10/09 10:24:11;;;;;;;10.05;2.65;;;19.80;99.90;;;;;;10050195;28;20470;-71
2023/10/09 10:29:33;;;;;;;8.05;2.83;;;19.80;99.90;;;;;;10055712;28;20026;-73
2023/10/09 10:34:25;;;;;;;9.57;3.40;;;19.90;99.90;;;;;;10039929;28;20377;-74
2023/10/09 10:49:40;;;;;;;11.32;3.05;;;20.30;99.90;;;;;;10036796;28;20045;-73
2023/10/09 10:59:26;;;;;;;8.02;3.45;;;20.40;99.90;;;;;;10067328;28;20520;-75
2023/10/09 11:04:24;;;;;;;9.38;3.08;;;20.40;99.90;;;;;;10061447;28;20084;-73
2023/10/09 11:09:21;;;;;;;9.85;2.97;;;20.50;99.90;;;;;;10062107;28;20073;-72
2023/10/09 11:14:23;;;;;;;10.85;3.20;;;20.60;99.90;;;;;;10066133;28;20041;-71
2023/10/09 11:24:25;;;;;;;8.73;3.25;;;20.50;99.90;;;;;;10048496;28;20044;-72
2023/10/09 11:34:37;;;;;;;12.65;2.83;;;20.70;99.90;;;;;;10058605;28;20033;-71
2023/10/09 11:39:43;;;;;;;9.25;3.13;;;20.80;99.90;;;;;;10056384;28;20037;-74
2023/10/09 11:44:55;;;;;;;10.95;3.38;;;20.80;99.90;;;;;;10067145;28;20022;-74
2023/10/09 11:54:56;;;;;;;16.83;7.00;;;20.90;99.90;;;;;;10063734;28;20029;-73
2023/10/09 11:59:52;;;;;;;16.13;4.57;;;21.00;99.90;;;;;;10070667;28;20076;-73
2023/10/09 12:04:43;;;;;;;16.65;5.18;;;21.10;99.90;;;;;;10051320;28;20084;-71
2023/10/09 12:09:37;;;;;;;8.48;2.95;;;21.20;99.90;;;;;;10043875;28;20061;-71
2023/10/09 12:14:33;;;;;;;6.25;2.95;;;21.20;99.90;;;;;;10060219;28;20028;-73
2023/10/09 12:19:23;;;;;;;4.30;2.45;;;21.30;99.90;;;;;;10064893;28;20503;-73
2023/10/09 12:24:18;;;;;;;8.95;2.17;;;21.50;99.90;;;;;;10067962;28;20029;-73
2023/10/09 12:29:10;;;;;;;13.68;3.58;;;21.60;99.90;;;;;;10066675;28;20025;-75
2023/10/09 12:34:02;;;;;;;5.90;3.03;;;21.70;99.90;;;;;;10056176;28;20033;-74
2023/10/09 12:38:54;;;;;;;6.28;2.40;;;21.80;99.90;;;;;;10046683;28;20480;-73
2023/10/09 12:43:47;;;;;;;9.40;3.13;;;21.90;99.90;;;;;;10053134;28;20064;-74
2023/10/09 12:48:41;;;;;;;8.35;3.33;;;22.00;99.90;;;;;;10038712;28;20026;-75
2023/10/09 12:53:33;;;;;;;9.90;3.03;;;22.20;99.90;;;;;;10038145;28;20509;-75
2023/10/09 12:58:26;;;;;;;13.80;3.30;;;22.40;99.90;;;;;;10046303;28;20568;-77
2023/10/09 13:03:18;;;;;;;7.57;2.65;;;22.50;99.90;;;;;;10044832;28;20022;-76
2023/10/09 13:08:11;;;;;;;9.43;3.88;;;22.50;99.90;;;;;;10050444;28;20053;-75
2023/10/09 13:13:06;;;;;;;7.47;2.72;;;22.60;99.90;;;;;;10041807;28;20033;-74
2023/10/09 13:17:57;;;;;;;8.93;3.22;;;22.80;99.90;;;;;;10059178;28;20040;-74
2023/10/09 13:22:48;;;;;;;7.95;2.90;;;22.90;99.90;;;;;;10048955;28;20391;-70
2023/10/09 13:27:40;;;;;;;13.93;2.40;;;23.00;99.90;;;;;;10051509;28;20033;-73
2023/10/09 13:32:33;;;;;;;7.30;2.67;;;23.00;99.90;;;;;;10042247;28;20083;-72
2023/10/09 13:37:24;;;;;;;8.68;3.05;;;23.10;99.90;;;;;;10044277;28;20038;-71
2023/10/09 13:42:16;;;;;;;13.35;3.90;;;23.30;99.90;;;;;;10058828;28;20029;-73
2023/10/09 13:47:08;;;;;;;10.98;3.35;;;23.40;99.90;;;;;;10045302;28;20018;-72
2023/10/09 13:52:02;;;;;;;10.02;4.10;;;23.50;99.90;;;;;;10039636;28;20071;-73
2023/10/09 13:56:53;;;;;;;8.82;3.05;;;23.50;99.90;;;;;;10059516;28;20408;-73
2023/10/09 14:01:47;;;;;;;14.65;3.92;;;23.40;99.90;;;;;;10069115;28;20033;-72
2023/10/09 14:06:44;;;;;;;9.57;3.15;;;23.40;99.90;;;;;;10061487;28;20037;-72
2023/10/09 14:11:39;;;;;;;12.18;2.80;;;23.40;99.90;;;;;;10064547;28;20045;-72
2023/10/09 14:16:33;;;;;;;8.85;3.08;;;23.30;99.90;;;;;;10043875;28;20029;-73
2023/10/09 14:21:30;;;;;;;5.70;2.90;;;23.30;99.90;;;;;;10060341;28;20112;-73
2023/10/09 14:26:22;;;;;;;6.53;2.95;;;23.40;99.90;;;;;;10069494;28;20037;-71
2023/10/09 14:31:14;;;;;;;10.50;3.85;;;23.50;99.90;;;;;;10066153;28;20675;-75
2023/10/09 14:36:05;;;;;;;12.00;3.13;;;23.50;99.90;;;;;;10069605;28;20049;-73
2023/10/09 14:40:59;;;;;;;11.93;3.38;;;23.50;99.90;;;;;;10064083;28;20486;-72
2023/10/09 14:45:53;;;;;;;15.13;3.08;;;23.50;99.90;;;;;;10036894;28;20112;-73
2023/10/09 14:50:49;;;;;;;15.77;3.55;;;23.60;99.90;;;;;;10032712;28;20029;-72
2023/10/09 14:55:41;;;;;;;13.23;3.75;;;23.50;99.90;;;;;;10032893;28;20034;-72
2023/10/09 15:00:34;;;;;;;18.60;4.75;;;23.50;99.90;;;;;;10036106;28;20042;-74
2023/10/09 15:05:24;;;;;;;15.63;3.30;;;23.60;99.90;;;;;;10041287;28;20052;-75
2023/10/09 15:10:15;;;;;;;8.00;3.60;;;23.60;99.90;;;;;;10037573;28;20050;-73
2023/10/09 15:15:25;;;;;;;10.65;4.07;;;23.90;99.90;;;;;;10046028;28;20084;-77
2023/10/09 15:20:16;;;;;;;6.95;2.42;;;23.90;99.90;;;;;;10058464;28;20422;-71
2023/10/09 15:25:07;;;;;;;8.98;3.15;;;24.00;99.90;;;;;;10048024;28;20026;-71
2023/10/09 15:29:58;;;;;;;11.43;2.72;;;24.10;99.90;;;;;;10049351;28;20329;-72
2023/10/09 15:34:54;;;;;;;8.90;3.10;;;24.40;99.90;;;;;;10047611;28;20411;-74
2023/10/09 15:39:45;;;;;;;8.45;3.58;;;24.50;99.90;;;;;;10062268;28;20409;-70
2023/10/09 15:44:36;;;;;;;8.07;2.90;;;24.60;99.90;;;;;;10052807;28;20088;-68
2023/10/09 15:49:30;;;;;;;10.73;3.53;;;24.60;99.90;;;;;;10053441;28;20043;-71
2023/10/09 15:54:21;;;;;;;11.20;3.88;;;24.50;99.90;;;;;;10031005;28;20060;-70
2023/10/09 15:59:12;;;;;;;5.57;2.53;;;24.30;99.90;;;;;;10039293;28;20148;-72
2023/10/09 16:04:03;;;;;;;9.32;3.33;;;24.20;99.90;;;;;;10050740;28;20041;-70
2023/10/09 16:08:54;;;;;;;6.78;2.78;;;24.10;99.90;;;;;;10043865;28;20058;-70
2023/10/09 16:13:45;;;;;;;6.40;2.95;;;24.00;99.90;;;;;;10047647;28;20049;-70
2023/10/09 16:18:37;;;;;;;10.52;2.70;;;23.90;99.90;;;;;;10043020;28;20057;-69
2023/10/09 16:23:28;;;;;;;10.35;3.45;;;23.80;99.90;;;;;;10040156;28;20022;-70
2023/10/09 16:28:19;;;;;;;18.25;4.45;;;23.80;99.90;;;;;;10027555;28;20032;-71
2023/10/09 16:33:09;;;;;;;10.27;3.25;;;23.70;99.90;;;;;;10041168;28;20026;-73
2023/10/09 16:38:05;;;;;;;8.20;3.80;;;23.70;99.90;;;;;;10055827;28;20030;-74
2023/10/09 16:42:56;;;;;;;12.68;4.72;;;23.60;99.90;;;;;;10047132;28;20013;-73
2023/10/09 16:47:48;;;;;;;12.02;4.45;;;23.60;99.90;;;;;;10031358;28;20121;-73
2023/10/09 16:52:38;;;;;;;12.25;3.90;;;23.50;99.90;;;;;;10034122;28;20034;-72
2023/10/09 16:57:29;;;;;;;12.52;4.18;;;23.50;99.90;;;;;;10054059;28;20041;-76
2023/10/09 17:02:23;;;;;;;14.63;5.82;;;23.50;99.90;;;;;;10043755;28;20345;-75
2023/10/09 17:07:17;;;;;;;13.40;4.60;;;23.50;99.90;;;;;;10037249;28;20032;-74
2023/10/09 17:12:19;;;;;;;19.73;5.22;;;23.50;99.90;;;;;;10061391;28;20463;-74
2023/10/09 17:17:10;;;;;;;15.10;5.43;;;23.40;99.90;;;;;;10044040;28;20069;-73
2023/10/09 17:22:10;;;;;;;10.95;6.15;;;23.30;99.90;;;;;;10039099;28;20032;-73
2023/10/09 17:27:01;;;;;;;18.90;5.47;;;23.40;99.90;;;;;;10031330;28;20025;-73
2023/10/09 17:31:52;;;;;;;16.30;6.72;;;23.30;99.90;;;;;;10048470;28;20050;-74
2023/10/09 17:36:42;;;;;;;16.02;5.93;;;23.30;99.90;;;;;;10054299;28;20076;-73
2023/10/09 17:41:35;;;;;;;16.98;6.80;;;23.30;99.90;;;;;;10050964;28;20411;-73
2023/10/09 17:46:29;;;;;;;15.90;6.65;;;23.20;99.90;;;;;;10051750;28;20075;-73
2023/10/09 17:51:19;;;;;;;12.50;5.78;;;23.10;99.90;;;;;;10029607;28;20388;-75
2023/10/09 17:56:10;;;;;;;21.42;10.85;;;23.20;99.90;;;;;;10048134;28;20041;-75
2023/10/09 18:01:08;;;;;;;18.88;8.73;;;23.10;99.90;;;;;;10050429;28;20042;-73
2023/10/09 18:05:59;;;;;;;18.05;8.18;;;23.10;99.90;;;;;;10055695;28;20029;-73
2023/10/09 18:10:55;;;;;;;23.13;8.57;;;23.10;99.90;;;;;;10044722;28;20053;-73
2023/10/09 18:15:47;;;;;;;26.83;9.70;;;23.00;99.90;;;;;;10047221;28;20033;-74
2023/10/09 18:20:44;;;;;;;25.13;11.48;;;22.90;99.90;;;;;;10039278;28;20041;-73
2023/10/09 18:25:37;;;;;;;19.38;8.80;;;23.00;99.90;;;;;;10036506;28;20432;-73
2023/10/09 18:30:28;;;;;;;26.40;9.75;;;22.80;99.90;;;;;;10037708;28;20216;-73
2023/10/09 18:35:22;;;;;;;22.08;11.80;;;22.90;99.90;;;;;;10024854;28;20140;-72
2023/10/09 18:40:16;;;;;;;20.67;10.73;;;22.90;99.90;;;;;;10052697;28;20048;-72
2023/10/09 18:45:08;;;;;;;23.80;9.63;;;23.00;99.90;;;;;;10033125;28;20057;-73
2023/10/09 18:50:00;;;;;;;25.30;9.18;;;22.80;99.90;;;;;;10024531;28;20049;-72
2023/10/09 18:54:50;;;;;;;21.05;8.93;;;22.90;99.90;;;;;;10043530;28;20026;-72
2023/10/09 18:59:43;;;;;;;20.33;9.57;;;22.80;99.90;;;;;;10041002;28;20045;-74
2023/10/09 19:04:33;;;;;;;26.52;12.02;;;22.80;99.90;;;;;;10038469;28;20408;-72
2023/10/09 19:09:25;;;;;;;20.25;9.15;;;22.80;99.90;;;;;;10025136;28;20057;-72
2023/10/09 19:14:17;;;;;;;15.20;7.45;;;22.70;99.90;;;;;;10039741;28;20035;-74
2023/10/09 19:19:08;;;;;;;16.48;6.95;;;22.60;99.90;;;;;;10044561;28;20052;-72
2023/10/09 19:23:59;;;;;;;17.48;7.72;;;22.70;99.90;;;;;;10027317;28;20041;-73
2023/10/09 19:28:50;;;;;;;14.48;6.75;;;22.70;99.90;;;;;;10033944;28;20458;-75
2023/10/09 19:33:43;;;;;;;15.25;6.28;;;22.60;99.90;;;;;;10038738;28;20471;-73
2023/10/09 19:38:34;;;;;;;17.42;5.07;;;22.50;99.90;;;;;;10038552;28;20407;-74
2023/10/09 19:43:25;;;;;;;14.85;5.07;;;22.50;99.90;;;;;;10046100;28;20025;-74
2023/10/09 19:48:16;;;;;;;15.05;5.68;;;22.50;99.90;;;;;;10045766;28;20041;-73
2023/10/09 19:53:06;;;;;;;13.75;5.57;;;22.40;99.90;;;;;;10030151;28;20021;-74
2023/10/09 19:57:57;;;;;;;10.98;4.63;;;22.50;99.90;;;;;;10043207;28;20479;-72
2023/10/09 20:02:53;;;;;;;18.95;5.80;;;22.50;99.90;;;;;;10036060;28;20026;-74
2023/10/09 20:07:44;;;;;;;13.10;6.30;;;22.30;99.90;;;;;;10032280;28;20139;-74
2023/10/09 20:12:34;;;;;;;11.68;6.18;;;22.30;99.90;;;;;;10045954;28;20085;-72
2023/10/09 20:17:25;;;;;;;12.88;6.03;;;22.20;99.90;;;;;;10048194;28;20033;-73
2023/10/09 20:22:17;;;;;;;16.15;6.25;;;22.20;99.90;;;;;;10053313;28;20032;-73
2023/10/09 20:27:08;;;;;;;17.65;6.07;;;22.20;99.90;;;;;;10051346;28;20502;-74
2023/10/09 20:31:59;;;;;;;18.02;6.40;;;22.20;99.90;;;;;;10050508;28;20028;-72
2023/10/09 20:36:55;;;;;;;19.15;6.22;;;22.10;99.90;;;;;;10049311;28;20113;-73
2023/10/09 20:41:46;;;;;;;23.35;8.27;;;22.00;99.90;;;;;;10053891;28;20454;-72
2023/10/09 20:46:38;;;;;;;13.18;6.55;;;21.90;99.90;;;;;;10045408;28;20058;-73
2023/10/09 20:51:29;;;;;;;18.38;7.82;;;21.80;99.90;;;;;;10035666;28;20026;-73
2023/10/09 20:56:23;;;;;;;15.35;7.78;;;21.80;99.90;;;;;;10052945;28;20030;-71
2023/10/09 21:01:14;;;;;;;18.75;7.45;;;21.70;99.90;;;;;;10044562;28;20421;-72
2023/10/09 21:06:05;;;;;;;19.13;8.38;;;21.70;99.90;;;;;;10049445;28;20156;-72
2023/10/09 21:10:55;;;;;;;21.13;9.05;;;21.60;99.90;;;;;;10038045;28;20499;-72
2023/10/09 21:15:46;;;;;;;14.63;7.22;;;21.70;99.90;;;;;;10059516;28;20410;-72
2023/10/09 21:20:38;;;;;;;14.88;7.18;;;21.60;99.90;;;;;;10046622;28;20056;-71
2023/10/09 21:25:29;;;;;;;15.70;7.70;;;21.60;99.90;;;;;;10028814;28;20045;-71
2023/10/09 21:30:21;;;;;;;15.20;6.70;;;21.50;99.90;;;;;;10040520;28;20728;-72
2023/10/09 21:35:17;;;;;;;17.27;7.88;;;21.50;99.90;;;;;;10035351;28;20373;-70
2023/10/09 21:40:13;;;;;;;16.83;7.72;;;21.40;99.90;;;;;;10046136;28;20049;-71
2023/10/09 21:45:04;;;;;;;17.10;7.30;;;21.30;99.90;;;;;;10041193;28;20033;-72
2023/10/09 21:49:54;;;;;;;16.83;6.43;;;21.30;99.90;;;;;;10032517;28;20399;-72
2023/10/09 21:54:46;;;;;;;14.55;7.45;;;21.20;99.90;;;;;;10037782;28;20021;-72
2023/10/09 21:59:37;;;;;;;13.18;7.20;;;21.20;99.90;;;;;;10039154;28;20053;-71
2023/10/09 22:04:28;;;;;;;14.27;7.55;;;21.20;99.90;;;;;;10041182;28;20056;-72
2023/10/09 22:09:18;;;;;;;22.70;6.47;;;21.10;99.90;;;;;;10032209;28;20539;-71
2023/10/09 22:14:09;;;;;;;11.63;6.50;;;21.10;99.90;;;;;;10045323;28;20042;-71
2023/10/09 22:18:59;;;;;;;15.18;6.38;;;21.10;99.90;;;;;;10041832;28;20041;-71
2023/10/09 22:23:53;;;;;;;9.02;4.40;;;21.10;99.90;;;;;;10040159;28;20037;-72
2023/10/09 22:28:46;;;;;;;12.35;5.60;;;21.00;99.90;;;;;;10051215;28;20523;-72
2023/10/09 22:33:48;;;;;;;8.88;4.72;;;21.00;99.90;;;;;;10040360;28;20080;-72
2023/10/09 22:38:41;;;;;;;15.60;5.85;;;20.90;99.90;;;;;;10046775;28;20056;-72
2023/10/09 22:43:33;;;;;;;13.88;6.00;;;20.90;99.90;;;;;;10039339;28;20089;-71
2023/10/09 22:48:27;;;;;;;13.52;5.20;;;20.90;99.90;;;;;;10039730;28;20044;-71
2023/10/09 22:53:32;;;;;;;12.68;5.82;;;20.80;99.90;;;;;;10035478;28;20029;-72
2023/10/09 22:58:26;;;;;;;13.63;6.88;;;20.70;99.90;;;;;;10042259;28;20647;-71
2023/10/09 23:03:26;;;;;;;11.38;5.43;;;20.60;99.90;;;;;;10038524;28;20479;-71
2023/10/09 23:08:18;;;;;;;18.73;7.15;;;20.60;99.90;;;;;;10036143;28;20041;-71
2023/10/09 23:13:16;;;;;;;12.68;4.50;;;20.60;99.90;;;;;;10038104;28;20022;-72
2023/10/09 23:23:24;;;;;;;13.50;4.45;;;20.60;99.90;;;;;;10053034;28;20124;-72
2023/10/09 23:28:21;;;;;;;13.85;5.50;;;20.40;99.90;;;;;;10047033;28;20037;-71
2023/10/09 23:33:20;;;;;;;13.75;5.55;;;20.40;99.90;;;;;;10058411;28;20533;-71
2023/10/09 23:38:31;;;;;;;14.10;6.15;;;20.30;99.90;;;;;;10061986;28;20094;-72
2023/10/09 23:43:28;;;;;;;26.92;5.10;;;20.30;99.90;;;;;;10055410;28;20113;-72
2023/10/09 23:48:27;;;;;;;8.73;4.50;;;20.20;99.90;;;;;;10032708;28;20030;-72
2023/10/09 23:53:22;;;;;;;13.68;5.45;;;20.20;99.90;;;;;;10038659;28;20025;-73
2023/10/09 23:58:19;;;;;;;;;;;20.10;99.90;;;;;;10051042;28;20084;-72
